createdAt,value
2022-12-03T00:00:54.039Z,20.1
2022-12-03T00:02:37.650Z,20.1
2022-12-03T00:04:21.410Z,20.1
2022-12-03T00:06:05.080Z,20
2022-12-03T00:07:48.777Z,20
2022-12-03T00:09:32.474Z,20.1
2022-12-03T00:11:16.194Z,20.1
2022-12-03T00:12:59.880Z,20
2022-12-03T00:14:43.558Z,20.1
2022-12-03T00:16:27.271Z,20
2022-12-03T00:18:11.035Z,20
2022-12-03T00:19:54.689Z,20.1
2022-12-03T00:21:38.386Z,20
2022-12-03T00:23:22.210Z,20
2022-12-03T00:25:05.787Z,20.1
2022-12-03T00:26:49.527Z,20
2022-12-03T00:28:33.316Z,20
2022-12-03T00:30:16.941Z,20
2022-12-03T00:32:00.621Z,20
2022-12-03T00:33:44.307Z,20
2022-12-03T00:35:28.011Z,20.1
2022-12-03T00:37:11.724Z,20
2022-12-03T00:38:55.386Z,20
2022-12-03T00:40:39.112Z,20
2022-12-03T00:42:22.821Z,20
2022-12-03T00:44:06.526Z,20
2022-12-03T00:45:50.213Z,20
2022-12-03T00:47:33.919Z,20
2022-12-03T00:49:17.611Z,20
2022-12-03T00:51:01.383Z,20
2022-12-03T00:52:45.021Z,20
2022-12-03T00:54:28.731Z,20
2022-12-03T00:56:12.512Z,20
2022-12-03T00:57:56.188Z,20.1
2022-12-03T00:59:39.855Z,20
2022-12-03T01:01:23.524Z,20
2022-12-03T01:03:07.235Z,20
2022-12-03T01:04:50.933Z,20
2022-12-03T01:06:34.651Z,20
2022-12-03T01:08:18.378Z,20
2022-12-03T01:10:02.049Z,20
2022-12-03T01:11:45.759Z,20
2022-12-03T01:13:29.492Z,20
2022-12-03T01:15:13.150Z,20
2022-12-03T01:16:56.840Z,20
2022-12-03T01:18:40.564Z,20
2022-12-03T01:20:24.282Z,20
2022-12-03T01:22:07.946Z,20
2022-12-03T01:23:51.642Z,20
2022-12-03T01:25:35.353Z,20
2022-12-03T01:27:19.094Z,20
2022-12-03T01:29:02.765Z,20
2022-12-03T01:30:46.573Z,20
2022-12-03T01:32:30.198Z,20
2022-12-03T01:34:13.883Z,20
2022-12-03T01:35:57.637Z,20
2022-12-03T01:37:41.277Z,20
2022-12-03T01:39:24.962Z,20
2022-12-03T01:41:08.692Z,20
2022-12-03T01:42:52.449Z,20
2022-12-03T01:44:36.074Z,20
2022-12-03T01:46:19.778Z,20
2022-12-03T01:48:03.481Z,20
2022-12-03T01:49:47.210Z,20
2022-12-03T01:51:30.915Z,20
2022-12-03T01:53:14.595Z,20
2022-12-03T01:54:58.363Z,20
2022-12-03T01:56:42.021Z,20
2022-12-03T01:58:25.711Z,20
2022-12-03T02:00:09.415Z,20
2022-12-03T02:01:53.110Z,20
2022-12-03T02:03:36.805Z,20
2022-12-03T02:05:20.596Z,20
2022-12-03T02:07:04.186Z,20
2022-12-03T02:08:47.908Z,20
2022-12-03T02:10:31.631Z,20
2022-12-03T02:12:15.323Z,20
2022-12-03T02:13:59.000Z,20
2022-12-03T02:15:42.695Z,20
2022-12-03T02:17:26.403Z,20
2022-12-03T02:19:10.122Z,20
2022-12-03T02:20:53.838Z,20
2022-12-03T02:22:37.522Z,20
2022-12-03T02:24:21.233Z,20
2022-12-03T02:26:04.919Z,20
2022-12-03T02:27:48.626Z,20
2022-12-03T02:29:32.324Z,20
2022-12-03T02:31:16.034Z,20
2022-12-03T02:32:59.729Z,20
2022-12-03T02:34:43.511Z,20
2022-12-03T02:36:27.116Z,20
2022-12-03T02:38:10.835Z,20
2022-12-03T02:39:54.542Z,20
2022-12-03T02:41:38.249Z,20
2022-12-03T02:43:21.950Z,20
2022-12-03T02:45:05.637Z,20
2022-12-03T02:46:49.410Z,20
2022-12-03T02:48:33.073Z,20
2022-12-03T02:50:16.760Z,20
2022-12-03T02:52:00.445Z,20.1
2022-12-03T02:53:44.159Z,20
2022-12-03T02:55:27.869Z,20
2022-12-03T02:58:55.249Z,20
2022-12-03T03:00:38.956Z,20
2022-12-03T03:02:22.685Z,20
2022-12-03T03:04:06.357Z,20
2022-12-03T03:05:50.151Z,20
2022-12-03T03:07:33.759Z,20
2022-12-03T03:09:17.467Z,20
2022-12-03T03:11:01.188Z,20
2022-12-03T03:12:44.887Z,20
2022-12-03T03:14:28.588Z,20
2022-12-03T03:16:12.299Z,20
2022-12-03T03:17:55.987Z,20.1
2022-12-03T03:19:39.764Z,20.1
2022-12-03T03:21:23.424Z,20
2022-12-03T03:23:07.101Z,20
2022-12-03T03:24:50.803Z,20
2022-12-03T03:26:34.502Z,20
2022-12-03T03:28:18.186Z,20
2022-12-03T03:30:01.892Z,20.1
2022-12-03T03:31:45.583Z,20
2022-12-03T03:33:29.358Z,20
2022-12-03T03:35:12.986Z,20
2022-12-03T03:36:56.789Z,20
2022-12-03T03:38:40.398Z,20.1
2022-12-03T03:40:24.200Z,20
2022-12-03T03:42:07.803Z,20.1
2022-12-03T03:43:51.523Z,20.1
2022-12-03T03:45:35.220Z,20.1
2022-12-03T03:49:02.630Z,20.1
2022-12-03T03:50:46.321Z,20.1
2022-12-03T03:52:30.041Z,20.1
2022-12-03T03:54:13.711Z,20.1
2022-12-03T03:55:57.414Z,20.1
2022-12-03T03:57:41.111Z,20.1
2022-12-03T03:59:24.816Z,20
2022-12-03T04:01:08.532Z,20.1
2022-12-03T04:02:52.240Z,20
2022-12-03T04:04:35.919Z,20.1
2022-12-03T04:06:19.637Z,20.1
2022-12-03T04:08:03.344Z,20
2022-12-03T04:09:47.047Z,20.1
2022-12-03T04:11:30.758Z,20.1
2022-12-03T04:13:14.493Z,20
2022-12-03T04:14:58.235Z,20.1
2022-12-03T04:16:41.850Z,20.1
2022-12-03T04:18:25.547Z,20.1
2022-12-03T04:20:09.235Z,20.1
2022-12-03T04:21:52.951Z,20.1
2022-12-03T04:23:36.654Z,20.1
2022-12-03T04:25:20.356Z,20.1
2022-12-03T04:27:04.116Z,20.1
2022-12-03T04:28:47.759Z,20.1
2022-12-03T04:30:31.469Z,20.1
2022-12-03T04:32:15.172Z,20.1
2022-12-03T04:33:58.877Z,20.1
2022-12-03T04:35:42.557Z,20.1
2022-12-03T04:37:26.268Z,20.1
2022-12-03T04:39:09.965Z,20.1
2022-12-03T04:40:53.730Z,20.1
2022-12-03T04:42:37.379Z,20.1
2022-12-03T04:44:21.080Z,20.1
2022-12-03T04:46:04.791Z,20.1
2022-12-03T04:47:48.493Z,20.1
2022-12-03T04:49:32.196Z,20.1
2022-12-03T04:51:15.892Z,20.1
2022-12-03T04:54:43.291Z,20
2022-12-03T04:56:27.003Z,20.1
2022-12-03T04:58:10.679Z,20
2022-12-03T04:59:54.392Z,20.1
2022-12-03T05:01:38.105Z,20.1
2022-12-03T05:03:21.855Z,20
2022-12-03T05:05:05.541Z,20
2022-12-03T05:06:49.212Z,20
2022-12-03T05:08:32.894Z,20
2022-12-03T05:10:16.596Z,20
2022-12-03T05:12:00.323Z,20
2022-12-03T05:13:44.020Z,20
2022-12-03T05:15:27.791Z,20
2022-12-03T05:17:11.420Z,20
2022-12-03T05:18:55.130Z,20
2022-12-03T05:20:38.858Z,20.1
2022-12-03T05:22:22.522Z,20
2022-12-03T05:24:06.238Z,20
2022-12-03T05:25:50.020Z,20
2022-12-03T05:27:33.670Z,20
2022-12-03T05:29:17.390Z,20
2022-12-03T05:31:01.025Z,20
2022-12-03T05:32:44.732Z,20
2022-12-03T05:34:28.459Z,20
2022-12-03T05:36:12.144Z,20.1
2022-12-03T05:37:55.845Z,20.1
2022-12-03T05:39:39.542Z,20
2022-12-03T05:41:23.249Z,20
2022-12-03T05:43:06.980Z,20
2022-12-03T05:44:50.686Z,20.1
2022-12-03T05:46:34.356Z,20
2022-12-03T05:48:18.054Z,20
2022-12-03T05:50:01.835Z,20
2022-12-03T05:51:45.457Z,20
2022-12-03T05:53:29.165Z,20
2022-12-03T05:55:12.902Z,20
2022-12-03T05:56:56.561Z,20
2022-12-03T05:58:40.275Z,20.1
2022-12-03T06:00:23.959Z,20.1
2022-12-03T06:02:07.673Z,20.1
2022-12-03T06:03:51.387Z,20
2022-12-03T06:05:35.093Z,20
2022-12-03T06:07:18.892Z,20
2022-12-03T06:09:02.493Z,20
2022-12-03T06:10:46.189Z,20
2022-12-03T06:12:29.892Z,20.1
2022-12-03T06:14:13.598Z,20.1
2022-12-03T06:15:57.296Z,20.1
2022-12-03T06:17:40.999Z,20.1
2022-12-03T06:19:24.699Z,20.1
2022-12-03T06:21:08.405Z,20.1
2022-12-03T06:22:52.111Z,20.1
2022-12-03T06:24:35.801Z,20.1
2022-12-03T06:26:19.495Z,20.1
2022-12-03T06:28:03.217Z,20.1
2022-12-03T06:29:46.922Z,20.1
2022-12-03T06:31:30.603Z,20.1
2022-12-03T06:33:14.395Z,20.1
2022-12-03T06:34:58.093Z,20.1
2022-12-03T06:36:41.729Z,20.1
2022-12-03T06:38:25.429Z,20.1
2022-12-03T06:40:09.135Z,20.1
2022-12-03T06:41:52.839Z,20.1
2022-12-03T06:43:36.635Z,20.1
2022-12-03T06:45:20.230Z,20.1
2022-12-03T06:47:04.062Z,20.1
2022-12-03T06:48:47.648Z,20.1
2022-12-03T06:50:31.430Z,20.1
2022-12-03T06:52:15.049Z,20.1
2022-12-03T06:53:58.751Z,20.1
2022-12-03T06:57:26.140Z,20.1
2022-12-03T06:59:09.850Z,20.1
2022-12-03T07:00:53.629Z,20.1
2022-12-03T07:02:37.241Z,20.1
2022-12-03T07:04:20.953Z,20.1
2022-12-03T07:06:04.675Z,20.1
2022-12-03T07:07:48.346Z,20.1
2022-12-03T07:09:32.169Z,20.1
2022-12-03T07:11:15.781Z,20.1
2022-12-03T07:12:59.443Z,20.1
2022-12-03T07:14:43.216Z,20.1
2022-12-03T07:16:26.862Z,20.1
2022-12-03T07:18:10.577Z,20.1
2022-12-03T07:19:54.383Z,20.1
2022-12-03T07:21:38.064Z,20.1
2022-12-03T07:23:21.659Z,20.1
2022-12-03T07:25:05.382Z,20.1
2022-12-03T07:26:49.121Z,20.1
2022-12-03T07:30:15.624Z,20.1
2022-12-03T07:31:59.300Z,20.1
2022-12-03T07:33:42.997Z,20.1
2022-12-03T07:35:26.643Z,20.1
2022-12-03T07:37:10.330Z,20.1
2022-12-03T07:38:54.053Z,20.1
2022-12-03T07:40:37.831Z,20.1
2022-12-03T07:42:21.493Z,20.1
2022-12-03T07:44:05.131Z,20.1
2022-12-03T07:45:48.830Z,20.1
2022-12-03T07:47:32.538Z,20.1
2022-12-03T07:49:16.316Z,20.1
2022-12-03T07:51:00.005Z,20.1
2022-12-03T07:52:43.715Z,20.1
2022-12-03T07:54:27.524Z,20.1
2022-12-03T07:56:11.104Z,20.1
2022-12-03T07:57:54.835Z,20.1
2022-12-03T07:59:38.506Z,20.1
2022-12-03T08:01:22.150Z,20.1
2022-12-03T08:03:05.972Z,20.1
2022-12-03T08:04:49.607Z,20.1
2022-12-03T08:06:33.418Z,20.1
2022-12-03T08:08:17.024Z,20.1
2022-12-03T08:10:00.751Z,20.1
2022-12-03T08:11:44.384Z,20.1
2022-12-03T08:13:28.090Z,20.1
2022-12-03T08:15:11.859Z,20.1
2022-12-03T08:16:55.616Z,20.1
2022-12-03T08:18:39.188Z,20.1
2022-12-03T08:20:22.893Z,20.1
2022-12-03T08:22:06.703Z,20.1
2022-12-03T08:23:50.407Z,20.1
2022-12-03T08:25:34.046Z,20.1
2022-12-03T08:27:17.879Z,20.1
2022-12-03T08:29:01.437Z,20.1
2022-12-03T08:30:45.113Z,20.1
2022-12-03T08:32:28.803Z,20.1
2022-12-03T08:34:12.512Z,20.1
2022-12-03T08:35:56.275Z,20.1
2022-12-03T08:37:39.924Z,20.1
2022-12-03T08:39:23.596Z,20.1
2022-12-03T08:41:07.312Z,20.1
2022-12-03T08:42:51.041Z,20.1
2022-12-03T08:44:34.705Z,20.1
2022-12-03T08:46:18.449Z,20.1
2022-12-03T08:48:02.110Z,20.1
2022-12-03T08:49:45.857Z,20.2
2022-12-03T08:51:29.551Z,20.2
2022-12-03T08:53:13.231Z,20.1
2022-12-03T08:54:56.928Z,20.1
2022-12-03T08:56:40.641Z,20.2
2022-12-03T08:58:24.334Z,20.1
2022-12-03T09:00:08.029Z,20.1
2022-12-03T09:01:51.725Z,20.1
2022-12-03T09:03:35.429Z,20.1
2022-12-03T09:05:19.142Z,20.1
2022-12-03T09:07:02.924Z,20.1
2022-12-03T09:08:46.610Z,20
2022-12-03T09:10:30.244Z,20
2022-12-03T09:12:13.948Z,20
2022-12-03T09:20:52.511Z,19.9
2022-12-03T09:22:36.252Z,19.9
2022-12-03T09:24:19.908Z,19.9
2022-12-03T09:26:03.640Z,19.9
2022-12-03T09:27:47.384Z,19.9
2022-12-03T09:29:31.034Z,19.9
2022-12-03T09:31:14.722Z,20
2022-12-03T09:32:58.477Z,20
2022-12-03T09:34:42.083Z,20
2022-12-03T09:36:25.813Z,20
2022-12-03T09:38:09.624Z,20
2022-12-03T09:39:53.235Z,20.1
2022-12-03T09:41:36.974Z,20.1
2022-12-03T09:43:20.651Z,20.1
2022-12-03T09:45:04.273Z,20.1
2022-12-03T09:46:48.124Z,20.2
2022-12-03T09:48:31.679Z,20.2
2022-12-03T09:50:15.450Z,20.2
2022-12-03T09:51:59.309Z,20.2
2022-12-03T09:53:42.791Z,20.2
2022-12-03T09:55:26.485Z,20.3
2022-12-03T09:57:10.320Z,20.3
2022-12-03T09:58:53.909Z,20.3
2022-12-03T10:09:16.102Z,20.4
2022-12-03T10:10:59.821Z,20.3
2022-12-03T10:12:43.536Z,20.4
2022-12-03T10:14:27.200Z,20.4
2022-12-03T10:16:10.905Z,20.4
2022-12-03T10:17:54.613Z,20.4
2022-12-03T10:19:38.405Z,20.3
2022-12-03T10:21:22.010Z,20.3
2022-12-03T10:23:05.711Z,20.3
2022-12-03T10:24:49.420Z,20.3
2022-12-03T10:26:33.142Z,20.3
2022-12-03T10:28:17.263Z,20.3
2022-12-03T10:30:00.534Z,20.3
2022-12-03T10:31:44.258Z,20.3
2022-12-03T10:33:27.941Z,20.3
2022-12-03T10:35:11.619Z,20.3
2022-12-03T10:36:55.342Z,20.3
2022-12-03T10:38:39.041Z,20.3
2022-12-03T10:40:22.754Z,20.3
2022-12-03T10:42:06.458Z,20.3
2022-12-03T10:43:50.149Z,20.3
2022-12-03T10:45:33.836Z,20.3
2022-12-03T10:47:17.563Z,20.3
2022-12-03T10:49:01.245Z,20.3
2022-12-03T10:50:44.950Z,20.3
2022-12-03T10:52:28.696Z,20.3
2022-12-03T10:54:12.355Z,20.3
2022-12-03T10:55:56.063Z,20.3
2022-12-03T10:57:39.772Z,20.3
2022-12-03T10:59:23.456Z,20.3
2022-12-03T11:01:07.179Z,20.4
2022-12-03T11:04:34.575Z,20.3
2022-12-03T11:06:18.264Z,20.4
2022-12-03T11:08:01.985Z,20.4
2022-12-03T11:09:45.689Z,20.4
2022-12-03T11:11:29.395Z,20.4
2022-12-03T11:13:13.077Z,20.4
2022-12-03T11:14:56.777Z,20.4
2022-12-03T11:16:40.482Z,20.4
2022-12-03T11:18:24.198Z,20.4
2022-12-03T11:20:07.914Z,20.4
2022-12-03T11:21:51.595Z,20.3
2022-12-03T11:23:35.290Z,20.4
2022-12-03T11:25:19.005Z,20.4
2022-12-03T11:27:02.699Z,20.4
2022-12-03T11:28:46.410Z,20.4
2022-12-03T11:30:30.116Z,20.4
2022-12-03T11:32:13.807Z,20.4
2022-12-03T11:33:57.522Z,20.4
2022-12-03T11:35:41.202Z,20.4
2022-12-03T11:37:24.922Z,20.3
2022-12-03T11:39:08.830Z,20.3
2022-12-03T11:40:52.312Z,20.3
2022-12-03T11:42:36.009Z,20.3
2022-12-03T11:44:19.725Z,20.3
2022-12-03T11:46:03.437Z,20.3
2022-12-03T11:47:47.160Z,20.3
2022-12-03T11:49:30.822Z,20.4
2022-12-03T11:51:14.529Z,20.4
2022-12-03T11:52:58.223Z,20.4
2022-12-03T11:54:41.952Z,20.4
2022-12-03T11:56:25.635Z,20.3
2022-12-03T11:58:09.329Z,20.3
2022-12-03T11:59:53.046Z,20.4
2022-12-03T12:01:36.741Z,20.4
2022-12-03T12:03:20.432Z,20.4
2022-12-03T12:05:04.139Z,20.4
2022-12-03T12:06:47.906Z,20.4
2022-12-03T12:08:31.559Z,20.4
2022-12-03T12:10:15.316Z,20.4
2022-12-03T12:11:58.948Z,20.4
2022-12-03T12:13:42.660Z,20.4
2022-12-03T12:15:26.361Z,20.4
2022-12-03T12:17:10.073Z,20.4
2022-12-03T12:18:53.758Z,20.4
2022-12-03T12:20:37.457Z,20.4
2022-12-03T12:22:21.190Z,20.4
2022-12-03T12:24:04.880Z,20.4
2022-12-03T12:25:48.572Z,20.4
2022-12-03T12:27:32.271Z,20.4
2022-12-03T12:29:15.982Z,20.4
2022-12-03T12:30:59.684Z,20.4
2022-12-03T12:32:43.375Z,20.4
2022-12-03T12:34:27.162Z,20.4
2022-12-03T12:36:10.768Z,20.4
2022-12-03T12:37:54.507Z,20.4
2022-12-03T12:39:38.193Z,20.4
2022-12-03T12:41:21.888Z,20.4
2022-12-03T12:43:05.697Z,20.4
2022-12-03T12:44:49.293Z,20.4
2022-12-03T12:46:32.998Z,20.4
2022-12-03T12:48:16.677Z,20.3
2022-12-03T12:50:00.408Z,20.3
2022-12-03T12:51:44.089Z,20.3
2022-12-03T12:53:27.786Z,20.4
2022-12-03T12:55:11.495Z,20.3
2022-12-03T12:56:55.199Z,20.3
2022-12-03T12:58:38.946Z,20.3
2022-12-03T13:00:22.599Z,20.3
2022-12-03T13:02:06.287Z,20.3
2022-12-03T13:03:50.110Z,20.3
2022-12-03T13:05:33.734Z,20.3
2022-12-03T13:07:17.430Z,20.3
2022-12-03T13:09:01.102Z,20.3
2022-12-03T13:10:44.809Z,20.3
2022-12-03T13:12:28.509Z,20.3
2022-12-03T13:14:12.207Z,20.3
2022-12-03T13:15:55.995Z,20.3
2022-12-03T13:17:39.626Z,20.3
2022-12-03T13:19:23.305Z,20.3
2022-12-03T13:21:07.019Z,20.3
2022-12-03T13:22:50.732Z,20.3
2022-12-03T13:24:34.419Z,20.3
2022-12-03T13:26:18.128Z,20.3
2022-12-03T13:28:01.924Z,20.3
2022-12-03T13:29:45.537Z,20.3
2022-12-03T13:31:29.235Z,20.2
2022-12-03T13:33:13.196Z,20.2
2022-12-03T13:34:56.808Z,20.2
2022-12-03T13:36:40.567Z,20.2
2022-12-03T13:38:24.221Z,20.2
2022-12-03T13:40:07.749Z,20.2
2022-12-03T13:41:51.541Z,20.2
2022-12-03T13:43:35.337Z,20.2
2022-12-03T13:45:19.085Z,20.2
2022-12-03T13:47:02.744Z,20.2
2022-12-03T13:48:46.457Z,20.2
2022-12-03T13:50:30.203Z,20.2
2022-12-03T13:52:13.859Z,20.2
2022-12-03T13:53:57.586Z,20.2
2022-12-03T13:55:41.270Z,20.2
2022-12-03T13:57:25.009Z,20.2
2022-12-03T13:59:08.633Z,20.1
2022-12-03T14:00:52.195Z,20.1
2022-12-03T14:02:35.999Z,20.1
2022-12-03T14:04:19.815Z,20.1
2022-12-03T14:06:03.283Z,20.1
2022-12-03T14:07:47.153Z,20.1
2022-12-03T14:09:30.865Z,20.1
2022-12-03T14:11:14.604Z,20.1
2022-12-03T14:12:58.236Z,20.1
2022-12-03T14:14:41.960Z,20
2022-12-03T15:14:39.405Z,19.7
2022-12-03T15:14:39.428Z,19.7
2022-12-03T15:15:11.456Z,19.7
2022-12-03T15:16:55.099Z,19.6
2022-12-03T15:18:38.857Z,19.6
2022-12-03T15:20:22.648Z,19.6
2022-12-03T15:22:10.368Z,19.6
2022-12-03T15:25:33.571Z,19.6
2022-12-03T15:27:17.393Z,19.6
2022-12-03T15:29:01.250Z,19.6
2022-12-03T15:30:44.857Z,19.6
2022-12-03T15:32:28.603Z,19.7
2022-12-03T15:34:12.231Z,19.7
2022-12-03T15:35:55.959Z,19.7
2022-12-03T15:37:39.743Z,19.7
2022-12-03T15:39:23.413Z,19.7
2022-12-03T15:41:07.123Z,19.7
2022-12-03T15:42:50.750Z,19.7
2022-12-03T15:44:34.437Z,19.8
2022-12-03T15:46:17.994Z,19.8
2022-12-03T15:48:01.981Z,19.8
2022-12-03T15:49:45.580Z,19.8
2022-12-03T15:51:29.119Z,19.8
2022-12-03T15:54:56.639Z,19.9
2022-12-03T15:56:40.225Z,19.9
2022-12-03T15:58:24.026Z,19.9
2022-12-03T16:00:07.646Z,19.9
2022-12-03T16:01:51.469Z,19.9
2022-12-03T16:03:35.226Z,19.9
2022-12-03T16:05:18.875Z,19.9
2022-12-03T16:07:02.653Z,19.9
2022-12-03T16:08:46.254Z,19.9
2022-12-03T16:10:29.864Z,20
2022-12-03T16:12:13.607Z,19.9
2022-12-03T16:13:57.428Z,20
2022-12-03T16:15:40.930Z,20
2022-12-03T16:17:24.684Z,20
2022-12-03T16:19:08.340Z,20
2022-12-03T16:20:52.146Z,20
2022-12-03T16:22:35.811Z,20
2022-12-03T16:26:03.215Z,20
2022-12-03T16:27:46.955Z,20
2022-12-03T16:29:30.539Z,20
2022-12-03T16:31:14.451Z,20
2022-12-03T16:32:58.115Z,20
2022-12-03T16:34:41.719Z,20
2022-12-03T16:36:25.455Z,20
2022-12-03T16:38:09.153Z,20
2022-12-03T16:39:52.738Z,20.1
2022-12-03T16:41:36.495Z,20.1
2022-12-03T16:43:20.172Z,20.1
2022-12-03T16:45:03.911Z,20.1
2022-12-03T16:46:47.687Z,20.1
2022-12-03T16:48:31.306Z,20.1
2022-12-03T16:50:14.956Z,20.1
2022-12-03T16:51:58.650Z,20.2
2022-12-03T16:53:42.413Z,20.2
2022-12-03T16:55:26.197Z,20.2
2022-12-03T16:57:09.742Z,20.2
2022-12-03T16:58:53.551Z,20.2
2022-12-03T17:00:37.230Z,20.2
2022-12-03T17:02:20.998Z,20.2
2022-12-03T17:04:04.702Z,20.3
2022-12-03T17:05:48.456Z,20.3
2022-12-03T17:07:32.146Z,20.3
2022-12-03T17:09:15.725Z,20.3
2022-12-03T17:10:59.556Z,20.3
2022-12-03T17:12:43.190Z,20.3
2022-12-03T17:14:26.948Z,20.3
2022-12-03T17:16:10.617Z,20.3
2022-12-03T17:17:54.324Z,20.3
2022-12-03T17:19:38.071Z,20.3
2022-12-03T17:21:21.792Z,20.4
2022-12-03T17:23:05.523Z,20.4
2022-12-03T17:24:49.160Z,20.4
2022-12-03T17:26:32.855Z,20.4
2022-12-03T17:28:16.573Z,20.4
2022-12-03T17:30:00.188Z,20.4
2022-12-03T17:31:43.970Z,20.3
2022-12-03T17:33:27.649Z,20.3
2022-12-03T17:35:11.228Z,20.4
2022-12-03T17:36:55.178Z,20.3
2022-12-03T17:38:38.773Z,20.3
2022-12-03T17:40:22.531Z,20.3
2022-12-03T17:42:06.035Z,20.3
2022-12-03T17:43:49.847Z,20.3
2022-12-03T17:45:33.586Z,20.3
2022-12-03T17:47:17.291Z,20.3
2022-12-03T17:49:00.972Z,20.3
2022-12-03T17:50:44.693Z,20.3
2022-12-03T17:52:28.372Z,20.3
2022-12-03T17:54:12.067Z,20.3
2022-12-03T17:55:55.846Z,20.2
2022-12-03T17:57:39.473Z,20.2
2022-12-03T17:59:23.202Z,20.3
2022-12-03T18:01:06.888Z,20.2
2022-12-03T18:02:50.583Z,20.2
2022-12-03T18:04:34.172Z,20.3
2022-12-03T18:06:18.023Z,20.2
2022-12-03T18:08:01.588Z,20.2
2022-12-03T18:09:45.384Z,20.2
2022-12-03T18:11:29.073Z,20.3
2022-12-03T18:13:12.784Z,20.2
2022-12-03T18:14:56.439Z,20.2
2022-12-03T18:16:40.227Z,20.2
2022-12-03T18:18:23.916Z,20.2
2022-12-03T18:20:07.542Z,20.2
2022-12-03T18:21:51.300Z,20.2
2022-12-03T18:23:34.919Z,20.2
2022-12-03T18:25:18.735Z,20.2
2022-12-03T18:27:02.279Z,20.2
2022-12-03T18:28:46.093Z,20.2
2022-12-03T18:30:29.701Z,20.2
2022-12-03T18:32:13.435Z,20.2
2022-12-03T18:33:57.136Z,20.2
2022-12-03T18:35:40.818Z,20.2
2022-12-03T18:37:24.505Z,20.2
2022-12-03T18:39:08.218Z,20.2
2022-12-03T18:42:35.758Z,20.2
2022-12-03T18:44:19.403Z,20.2
2022-12-03T18:46:03.127Z,20.2
2022-12-03T18:47:46.837Z,20.2
2022-12-03T18:49:30.413Z,20.2
2022-12-03T18:51:14.170Z,20.2
2022-12-03T18:52:57.979Z,20.2
2022-12-03T18:54:41.581Z,20.2
2022-12-03T18:56:25.282Z,20.2
2022-12-03T18:58:08.921Z,20.2
2022-12-03T18:59:52.780Z,20.2
2022-12-03T19:01:36.387Z,20.2
2022-12-03T19:03:20.121Z,20.2
2022-12-03T19:05:03.930Z,20.2
2022-12-03T19:06:47.441Z,20.2
2022-12-03T19:08:31.267Z,20.2
2022-12-03T19:10:14.847Z,20.2
2022-12-03T19:11:58.532Z,20.2
2022-12-03T19:13:42.258Z,20.2
2022-12-03T19:15:26.118Z,20.2
2022-12-03T19:17:09.756Z,20.2
2022-12-03T19:18:53.439Z,20.2
2022-12-03T19:20:37.188Z,20.2
2022-12-03T19:22:20.859Z,20.2
2022-12-03T19:24:04.528Z,20.2
2022-12-03T19:25:48.301Z,20.2
2022-12-03T19:27:32.064Z,20.1
2022-12-03T19:29:15.559Z,20.2
2022-12-03T19:30:59.307Z,20.1
2022-12-03T19:32:42.960Z,20.2
2022-12-03T19:34:26.772Z,20.2
2022-12-03T19:36:10.372Z,20.2
2022-12-03T19:37:54.169Z,20.2
2022-12-03T19:39:37.892Z,20.2
2022-12-03T19:41:21.483Z,20.1
2022-12-03T19:43:05.258Z,20.1
2022-12-03T19:44:48.877Z,20.1
2022-12-03T19:46:32.569Z,20.1
2022-12-03T19:48:16.386Z,20.2
2022-12-03T19:50:00.049Z,20.2
2022-12-03T19:51:43.759Z,20.2
2022-12-03T19:53:27.397Z,20.1
2022-12-03T19:55:11.083Z,20.2
2022-12-03T19:56:54.864Z,20.2
2022-12-03T19:58:38.566Z,20.2
2022-12-03T20:00:22.230Z,20.1
2022-12-03T20:02:06.010Z,20.1
2022-12-03T20:03:49.653Z,20.2
2022-12-03T20:05:33.312Z,20.2
2022-12-03T20:07:17.010Z,20.2
2022-12-03T20:09:00.699Z,20.1
2022-12-03T20:10:44.461Z,20.2
2022-12-03T20:12:28.152Z,20.1
2022-12-03T20:14:11.805Z,20.2
2022-12-03T20:15:55.590Z,20.2
2022-12-03T20:17:39.278Z,20.2
2022-12-03T20:19:23.038Z,20.2
2022-12-03T20:21:06.628Z,20.2
2022-12-03T20:22:50.353Z,20.2
2022-12-03T20:24:34.092Z,20.2
2022-12-03T20:26:17.772Z,20.2
2022-12-03T20:28:01.425Z,20.1
2022-12-03T20:29:45.130Z,20.1
2022-12-03T20:31:28.932Z,20.1
2022-12-03T20:33:12.540Z,20.2
2022-12-03T20:34:56.403Z,20.2
2022-12-03T20:36:39.969Z,20.1
2022-12-03T20:38:23.657Z,20.2
2022-12-03T20:40:07.414Z,20.1
2022-12-03T20:41:51.186Z,20.1
2022-12-03T20:43:34.768Z,20.1
2022-12-03T20:45:18.517Z,20.1
2022-12-03T20:47:02.207Z,20.1
2022-12-03T20:48:45.889Z,20.1
2022-12-03T20:50:29.572Z,20.1
2022-12-03T20:52:13.267Z,20.1
2022-12-03T20:53:56.960Z,20.1
2022-12-03T20:55:40.687Z,20.1
2022-12-03T20:57:24.438Z,20.1
2022-12-03T20:59:08.076Z,20.1
2022-12-03T21:00:51.761Z,20.1
2022-12-03T21:02:35.580Z,20.1
2022-12-03T21:04:19.187Z,20.1
2022-12-03T21:06:02.911Z,20.1
2022-12-03T21:07:46.684Z,20.1
2022-12-03T21:09:30.284Z,20.1
2022-12-03T21:11:13.974Z,20.1
2022-12-03T21:12:57.729Z,20.1
2022-12-03T21:14:41.449Z,20.1
2022-12-03T21:16:25.088Z,20.1
2022-12-03T21:18:08.911Z,20.1
2022-12-03T21:19:52.472Z,20.1
2022-12-03T21:21:36.170Z,20.1
2022-12-03T21:23:19.971Z,20.1
2022-12-03T21:25:03.586Z,20.1
2022-12-03T21:26:47.373Z,20.1
2022-12-03T21:28:30.999Z,20.1
2022-12-03T21:30:14.703Z,20.1
2022-12-03T21:31:58.511Z,20.1
2022-12-03T22:23:49.526Z,20
2022-12-03T22:25:33.198Z,20
2022-12-03T22:27:16.902Z,20
2022-12-03T22:29:00.663Z,20
2022-12-03T22:30:44.427Z,20
2022-12-03T22:32:27.922Z,20
2022-12-03T22:34:11.618Z,20
2022-12-03T22:35:55.412Z,20
2022-12-03T22:37:39.034Z,20
2022-12-03T22:39:22.810Z,20
2022-12-03T22:41:06.524Z,20
2022-12-03T22:42:50.161Z,20
2022-12-03T22:44:34.087Z,20
2022-12-03T22:46:17.642Z,20
2022-12-03T22:48:01.313Z,20
2022-12-03T22:49:44.979Z,20
2022-12-03T22:51:28.722Z,19.9
2022-12-03T22:53:12.414Z,19.9
2022-12-03T22:54:56.182Z,20
2022-12-03T22:56:39.996Z,19.9
2022-12-03T22:58:23.454Z,19.9
2022-12-03T23:00:07.197Z,19.9
2022-12-03T23:01:50.899Z,19.9
2022-12-03T23:03:34.682Z,19.9
2022-12-03T23:05:18.363Z,19.9
2022-12-03T23:07:02.054Z,19.9
2022-12-03T23:08:45.661Z,19.9
2022-12-03T23:10:29.494Z,19.9
2022-12-03T23:12:13.159Z,19.9
2022-12-03T23:13:56.905Z,19.9
2022-12-03T23:15:40.497Z,19.9
2022-12-03T23:17:24.173Z,19.9
2022-12-03T23:19:07.883Z,19.9
2022-12-03T23:20:51.618Z,19.9
2022-12-03T23:22:35.274Z,19.9
2022-12-03T23:24:19.065Z,19.9
2022-12-03T23:26:02.706Z,19.9
2022-12-03T23:27:46.383Z,19.9
2022-12-03T23:29:30.096Z,19.9
2022-12-03T23:31:13.781Z,19.9
2022-12-03T23:32:57.481Z,19.9
2022-12-03T23:34:41.217Z,19.9
2022-12-03T23:36:24.922Z,19.8
2022-12-03T23:38:08.590Z,19.8
2022-12-03T23:39:52.319Z,19.8
2022-12-03T23:41:36.074Z,19.8
2022-12-03T23:43:19.721Z,19.8
2022-12-03T23:45:03.407Z,19.8
2022-12-03T23:46:47.153Z,19.8
2022-12-03T23:50:14.557Z,19.8
2022-12-03T23:51:58.229Z,19.7
2022-12-03T23:53:41.900Z,19.8
2022-12-03T23:55:25.675Z,19.7
2022-12-03T23:57:09.280Z,19.7
2022-12-03T23:58:53.056Z,19.7
